createdAt,value
2023-04-27T00:02:23.911Z,18.93
2023-04-27T00:05:17.878Z,18.92
2023-04-27T00:08:12.136Z,18.91
2023-04-27T00:11:06.670Z,18.88
2023-04-27T00:14:00.490Z,18.80
2023-04-27T00:16:54.078Z,18.83
2023-04-27T00:19:48.558Z,18.83
2023-04-27T00:22:42.593Z,18.82
2023-04-27T00:25:36.389Z,18.80
2023-04-27T00:28:30.133Z,18.75
2023-04-27T00:31:24.063Z,18.74
2023-04-27T00:34:17.698Z,18.71
2023-04-27T00:37:11.581Z,18.77
2023-04-27T00:40:07.896Z,18.73
2023-04-27T00:43:01.769Z,18.76
2023-04-27T00:46:00.659Z,18.73
2023-04-27T00:48:55.214Z,18.67
2023-04-27T00:51:48.815Z,18.68
2023-04-27T00:54:42.697Z,18.68
2023-04-27T00:57:37.269Z,18.70
2023-04-27T01:00:31.246Z,18.69
2023-04-27T01:03:25.621Z,18.68
2023-04-27T01:06:19.461Z,18.71
2023-04-27T01:09:14.011Z,18.66
2023-04-27T01:12:09.231Z,18.67
2023-04-27T01:15:03.324Z,18.67
2023-04-27T01:18:04.179Z,18.67
2023-04-27T01:20:58.184Z,18.65
2023-04-27T01:23:52.281Z,18.65
2023-04-27T01:26:45.951Z,18.64
2023-04-27T01:29:40.225Z,18.63
2023-04-27T01:32:34.275Z,18.62
2023-04-27T01:35:28.475Z,18.62
2023-04-27T01:38:24.160Z,18.59
2023-04-27T01:41:18.289Z,18.58
2023-04-27T01:44:12.454Z,18.60
2023-04-27T01:47:06.458Z,18.62
2023-04-27T01:50:00.797Z,18.61
2023-04-27T01:52:55.212Z,18.60
2023-04-27T01:55:49.559Z,18.59
2023-04-27T01:58:43.742Z,18.58
2023-04-27T02:01:37.923Z,18.51
2023-04-27T02:04:31.918Z,18.51
2023-04-27T02:07:26.175Z,18.49
2023-04-27T02:10:22.163Z,18.47
2023-04-27T02:13:16.287Z,18.49
2023-04-27T02:16:11.034Z,18.51
2023-04-27T02:19:04.810Z,18.50
2023-04-27T02:21:59.171Z,18.42
2023-04-27T02:24:53.381Z,18.48
2023-04-27T02:27:47.713Z,18.48
2023-04-27T02:30:42.579Z,18.47
2023-04-27T02:33:36.610Z,18.48
2023-04-27T02:36:31.709Z,18.45
2023-04-27T02:39:25.485Z,18.48
2023-04-27T02:42:19.463Z,18.43
2023-04-27T02:45:14.579Z,18.44
2023-04-27T02:48:09.447Z,18.45
2023-04-27T02:51:06.038Z,18.43
2023-04-27T02:54:00.900Z,18.38
2023-04-27T02:56:55.070Z,18.43
2023-04-27T02:59:49.173Z,18.42
2023-04-27T03:02:43.051Z,18.36
2023-04-27T03:05:37.646Z,18.42
2023-04-27T03:08:31.879Z,18.41
2023-04-27T03:11:25.951Z,18.38
2023-04-27T03:14:19.588Z,18.34
2023-04-27T03:17:13.381Z,18.34
2023-04-27T03:20:09.892Z,18.31
2023-04-27T03:23:03.450Z,18.38
2023-04-27T03:25:57.267Z,18.33
2023-04-27T03:28:51.099Z,18.33
2023-04-27T03:31:44.726Z,18.32
2023-04-27T03:34:38.470Z,18.29
2023-04-27T03:37:32.818Z,18.29
2023-04-27T03:40:26.978Z,18.26
2023-04-27T03:43:21.498Z,18.30
2023-04-27T03:46:15.061Z,18.28
2023-04-27T03:49:08.751Z,18.25
2023-04-27T03:52:03.138Z,18.23
2023-04-27T03:54:56.860Z,18.23
2023-04-27T03:57:50.597Z,18.25
2023-04-27T04:00:44.617Z,18.29
2023-04-27T04:03:38.595Z,18.23
2023-04-27T04:06:32.924Z,18.24
2023-04-27T04:09:26.657Z,18.23
2023-04-27T04:12:20.502Z,18.23
2023-04-27T04:15:15.252Z,18.26
2023-04-27T04:18:09.062Z,18.28
2023-04-27T04:21:03.109Z,18.24
2023-04-27T04:23:57.193Z,18.25
2023-04-27T04:26:50.850Z,18.21
2023-04-27T04:29:44.443Z,18.20
2023-04-27T04:32:38.905Z,18.23
2023-04-27T04:35:33.054Z,18.18
2023-04-27T04:38:27.369Z,18.23
2023-04-27T04:41:21.043Z,18.22
2023-04-27T04:44:15.753Z,18.22
2023-04-27T04:47:10.220Z,18.26
2023-04-27T04:50:04.072Z,18.13
2023-04-27T04:52:57.799Z,18.23
2023-04-27T04:55:51.634Z,18.24
2023-04-27T04:58:45.349Z,18.16
2023-04-27T05:01:39.188Z,18.25
2023-04-27T05:04:32.976Z,18.30
2023-04-27T05:07:27.037Z,18.30
2023-04-27T05:10:21.176Z,18.31
2023-04-27T05:13:14.978Z,18.26
2023-04-27T05:16:10.592Z,18.31
2023-04-27T05:19:06.015Z,18.34
2023-04-27T05:22:00.488Z,18.21
2023-04-27T05:24:54.449Z,18.36
2023-04-27T05:27:48.378Z,18.37
2023-04-27T05:30:42.534Z,18.37
2023-04-27T05:33:36.425Z,18.07
2023-04-27T05:36:30.295Z,17.28
2023-04-27T05:39:23.997Z,17.98
2023-04-27T05:42:17.852Z,18.27
2023-04-27T05:45:13.808Z,18.30
2023-04-27T05:48:07.890Z,18.36
2023-04-27T05:51:06.058Z,18.38
2023-04-27T05:54:01.896Z,18.34
2023-04-27T05:56:55.882Z,18.37
2023-04-27T05:59:50.366Z,18.38
2023-04-27T06:02:44.279Z,18.42
2023-04-27T06:05:38.181Z,18.33
2023-04-27T06:08:32.353Z,18.41
2023-04-27T06:11:26.248Z,18.46
2023-04-27T06:14:20.060Z,18.35
2023-04-27T06:17:14.099Z,18.08
2023-04-27T06:20:10.234Z,18.13
2023-04-27T06:23:04.305Z,18.10
2023-04-27T06:25:58.855Z,18.28
2023-04-27T06:28:53.004Z,18.36
2023-04-27T06:31:47.239Z,18.41
2023-04-27T06:34:41.455Z,18.46
2023-04-27T06:37:35.209Z,18.44
2023-04-27T06:40:29.512Z,18.63
2023-04-27T06:43:23.358Z,18.85
2023-04-27T06:46:17.201Z,18.75
2023-04-27T06:49:02.856Z,18.72
2023-04-27T06:51:56.933Z,18.88
2023-04-27T06:54:50.660Z,18.58
2023-04-27T06:57:44.558Z,18.54
2023-04-27T07:00:38.709Z,18.50
2023-04-27T07:03:35.550Z,18.55
2023-04-27T07:06:29.798Z,18.73
2023-04-27T07:09:27.483Z,18.56
2023-04-27T07:12:21.674Z,18.56
2023-04-27T07:15:15.896Z,18.60
2023-04-27T07:18:12.109Z,18.66
2023-04-27T07:21:06.752Z,18.62
2023-04-27T07:24:00.589Z,18.62
2023-04-27T07:26:54.450Z,18.62
2023-04-27T07:29:48.305Z,18.78
2023-04-27T07:32:44.513Z,18.68
2023-04-27T07:35:38.480Z,18.67
2023-04-27T07:38:32.599Z,18.65
2023-04-27T07:41:27.478Z,18.66
2023-04-27T07:44:21.991Z,18.55
2023-04-27T07:47:16.471Z,18.57
2023-04-27T07:50:12.729Z,18.76
2023-04-27T07:53:06.829Z,18.96
2023-04-27T07:56:01.010Z,19.09
2023-04-27T07:58:54.858Z,18.85
2023-04-27T08:01:49.072Z,18.90
2023-04-27T08:04:43.514Z,18.82
2023-04-27T08:07:42.775Z,18.39
2023-04-27T08:10:38.342Z,18.71
2023-04-27T08:13:34.694Z,18.50
2023-04-27T08:16:28.789Z,18.00
2023-04-27T08:19:22.495Z,17.35
2023-04-27T08:22:16.495Z,16.19
2023-04-27T08:25:12.453Z,17.14
2023-04-27T08:28:06.374Z,18.30
2023-04-27T08:31:00.203Z,18.42
2023-04-27T08:33:54.208Z,18.38
2023-04-27T08:36:47.986Z,18.35
2023-04-27T08:39:42.127Z,18.33
2023-04-27T08:42:35.836Z,18.45
2023-04-27T08:45:30.657Z,18.40
2023-04-27T08:48:24.632Z,18.21
2023-04-27T08:51:20.095Z,18.34
2023-04-27T08:54:05.148Z,18.35
2023-04-27T08:56:59.539Z,18.53
2023-04-27T09:00:11.955Z,18.42
2023-04-27T09:03:06.421Z,18.41
2023-04-27T09:06:05.366Z,18.40
2023-04-27T09:09:00.742Z,18.60
2023-04-27T09:11:54.761Z,18.44
2023-04-27T09:15:10.238Z,18.63
2023-04-27T09:18:04.772Z,18.70
2023-04-27T09:20:58.518Z,18.84
2023-04-27T09:23:52.443Z,18.62
2023-04-27T09:26:53.976Z,18.31
2023-04-27T09:29:47.621Z,18.24
2023-04-27T09:32:49.667Z,18.00
2023-04-27T09:35:46.875Z,18.61
2023-04-27T09:38:41.503Z,18.65
2023-04-27T09:41:36.650Z,18.45
2023-04-27T09:44:32.514Z,18.71
2023-04-27T09:47:28.622Z,18.45
2023-04-27T09:50:23.108Z,18.44
2023-04-27T09:53:19.726Z,18.50
2023-04-27T09:56:34.654Z,18.42
2023-04-27T09:59:55.932Z,18.45
2023-04-27T10:03:04.360Z,18.28
2023-04-27T10:06:39.512Z,18.34
2023-04-27T10:09:38.759Z,18.40
2023-04-27T10:12:37.382Z,18.36
2023-04-27T10:15:32.141Z,18.40
2023-04-27T10:18:34.859Z,18.37
2023-04-27T10:21:30.698Z,18.40
2023-04-27T10:24:35.859Z,18.43
2023-04-27T10:27:40.078Z,18.57
2023-04-27T10:30:39.702Z,18.39
2023-04-27T10:33:53.912Z,18.44
2023-04-27T10:36:47.966Z,18.35
2023-04-27T10:39:49.131Z,17.38
2023-04-27T10:42:44.558Z,18.08
2023-04-27T10:45:38.541Z,18.34
2023-04-27T10:48:32.757Z,18.39
2023-04-27T10:51:27.476Z,18.37
2023-04-27T10:54:21.949Z,18.30
2023-04-27T10:57:16.383Z,18.34
2023-04-27T11:00:16.440Z,18.33
2023-04-27T11:03:20.950Z,18.31
2023-04-27T11:06:15.158Z,18.30
2023-04-27T11:09:10.797Z,18.35
2023-04-27T11:12:05.035Z,18.29
2023-04-27T11:15:03.411Z,18.25
2023-04-27T11:18:08.497Z,18.22
2023-04-27T11:21:13.337Z,18.02
2023-04-27T11:24:08.829Z,18.05
2023-04-27T11:27:03.286Z,18.16
2023-04-27T11:29:57.445Z,18.13
2023-04-27T11:32:51.580Z,18.23
2023-04-27T11:35:45.513Z,18.40
2023-04-27T11:38:39.692Z,18.43
2023-04-27T11:41:49.619Z,18.41
2023-04-27T11:44:43.616Z,18.34
2023-04-27T11:47:38.029Z,18.37
2023-04-27T11:50:31.923Z,18.40
2023-04-27T11:53:36.706Z,18.23
2023-04-27T11:56:39.509Z,18.27
2023-04-27T11:59:33.698Z,18.40
2023-04-27T12:02:28.636Z,18.38
2023-04-27T12:05:23.098Z,18.22
2023-04-27T12:08:17.451Z,18.27
2023-04-27T12:11:11.153Z,18.30
2023-04-27T12:14:05.440Z,18.22
2023-04-27T12:16:59.301Z,18.27
2023-04-27T12:19:53.112Z,18.36
2023-04-27T12:22:46.733Z,18.28
2023-04-27T12:25:41.165Z,18.23
2023-04-27T12:28:34.887Z,18.27
2023-04-27T12:31:28.594Z,18.64
2023-04-27T12:34:30.932Z,18.50
2023-04-27T12:37:26.856Z,18.47
2023-04-27T12:40:23.207Z,18.23
2023-04-27T12:43:17.277Z,18.31
2023-04-27T12:46:11.670Z,18.37
2023-04-27T12:49:06.332Z,18.33
2023-04-27T12:51:59.982Z,18.30
2023-04-27T12:54:57.690Z,18.40
2023-04-27T12:57:51.360Z,18.33
2023-04-27T13:00:45.200Z,18.41
2023-04-27T13:03:39.103Z,18.38
2023-04-27T13:06:33.126Z,18.51
2023-04-27T13:09:27.452Z,18.68
2023-04-27T13:12:21.416Z,18.60
2023-04-27T13:15:15.989Z,18.79
2023-04-27T13:18:12.469Z,18.94
2023-04-27T13:21:07.379Z,18.68
2023-04-27T13:24:01.191Z,18.69
2023-04-27T13:26:54.877Z,18.92
2023-04-27T13:29:51.166Z,18.69
2023-04-27T13:32:44.864Z,18.83
2023-04-27T13:35:39.440Z,18.95
2023-04-27T13:38:33.444Z,18.78
2023-04-27T13:41:28.090Z,18.53
2023-04-27T13:44:21.757Z,18.96
2023-04-27T13:47:15.853Z,18.72
2023-04-27T13:50:12.470Z,18.75
2023-04-27T13:53:07.377Z,18.78
2023-04-27T13:56:01.730Z,18.70
2023-04-27T13:58:55.924Z,18.69
2023-04-27T14:01:49.660Z,18.68
2023-04-27T14:04:43.782Z,18.66
2023-04-27T14:07:37.731Z,18.67
2023-04-27T14:10:31.632Z,18.84
2023-04-27T14:13:25.783Z,18.80
2023-04-27T14:16:19.538Z,18.76
2023-04-27T14:19:16.045Z,18.80
2023-04-27T14:22:10.079Z,18.77
2023-04-27T14:25:04.272Z,18.73
2023-04-27T14:27:57.995Z,18.65
2023-04-27T14:30:52.597Z,18.90
2023-04-27T14:33:47.360Z,18.79
2023-04-27T14:36:41.207Z,19.00
2023-04-27T14:39:34.919Z,18.88
2023-04-27T14:42:28.967Z,18.91
2023-04-27T14:45:24.249Z,18.92
2023-04-27T14:48:18.274Z,18.90
2023-04-27T14:51:12.214Z,18.89
2023-04-27T14:54:06.384Z,18.78
2023-04-27T14:57:01.069Z,18.85
2023-04-27T14:59:54.799Z,18.92
2023-04-27T15:02:49.220Z,18.85
2023-04-27T15:05:43.966Z,18.93
2023-04-27T15:08:38.087Z,19.31
2023-04-27T15:11:31.920Z,19.07
2023-04-27T15:14:25.863Z,19.03
2023-04-27T15:17:19.498Z,19.02
2023-04-27T15:20:14.561Z,19.00
2023-04-27T15:23:08.731Z,19.03
2023-04-27T15:26:02.892Z,19.02
2023-04-27T15:28:58.215Z,19.03
2023-04-27T15:31:53.143Z,18.96
2023-04-27T15:34:47.230Z,18.98
2023-04-27T15:37:41.400Z,18.97
2023-04-27T15:40:35.676Z,19.04
2023-04-27T15:43:31.978Z,19.13
2023-04-27T15:46:28.680Z,19.04
2023-04-27T15:49:22.712Z,19.08
2023-04-27T15:52:17.080Z,18.69
2023-04-27T15:55:12.387Z,18.88
2023-04-27T15:58:06.340Z,18.99
2023-04-27T16:01:00.475Z,18.99
2023-04-27T16:03:54.396Z,19.02
2023-04-27T16:06:48.354Z,19.11
2023-04-27T16:09:42.758Z,18.58
2023-04-27T16:12:36.710Z,18.75
2023-04-27T16:15:30.621Z,19.25
2023-04-27T16:18:24.396Z,19.07
2023-04-27T16:21:18.307Z,19.22
2023-04-27T16:24:13.039Z,19.19
2023-04-27T16:27:07.292Z,19.17
2023-04-27T16:30:01.074Z,19.10
2023-04-27T16:32:55.623Z,19.15
2023-04-27T16:35:49.950Z,19.02
2023-04-27T16:38:43.874Z,19.04
2023-04-27T16:41:37.804Z,19.13
2023-04-27T16:44:32.198Z,19.28
2023-04-27T16:47:26.635Z,19.19
2023-04-27T16:50:20.428Z,19.10
2023-04-27T16:53:20.286Z,19.47
2023-04-27T16:56:14.391Z,19.11
2023-04-27T16:59:10.491Z,19.03
2023-04-27T17:02:17.066Z,19.11
2023-04-27T17:05:17.881Z,19.37
2023-04-27T17:08:11.618Z,19.27
2023-04-27T17:11:10.519Z,19.00
2023-04-27T17:14:04.263Z,18.83
2023-04-27T17:16:58.811Z,18.92
2023-04-27T17:19:52.422Z,19.05
2023-04-27T17:22:46.243Z,18.97
2023-04-27T17:25:40.300Z,19.07
2023-04-27T17:28:34.148Z,18.98
2023-04-27T17:31:28.245Z,18.97
2023-04-27T17:34:22.835Z,19.13
2023-04-27T17:37:16.830Z,18.83
2023-04-27T17:40:13.954Z,19.53
2023-04-27T17:43:07.865Z,19.53
2023-04-27T17:46:01.885Z,19.39
2023-04-27T17:48:46.230Z,19.30
2023-04-27T17:51:40.617Z,19.40
2023-04-27T17:54:34.596Z,19.40
2023-04-27T17:57:28.448Z,19.29
2023-04-27T18:00:23.114Z,19.23
2023-04-27T18:03:17.067Z,19.34
2023-04-27T18:06:11.939Z,19.29
2023-04-27T18:09:06.358Z,19.06
2023-04-27T18:12:00.196Z,19.41
2023-04-27T18:14:53.968Z,19.42
2023-04-27T18:17:48.035Z,19.54
2023-04-27T18:20:44.843Z,19.45
2023-04-27T18:23:41.374Z,19.40
2023-04-27T18:26:36.913Z,19.44
2023-04-27T18:29:30.694Z,19.34
2023-04-27T18:32:24.617Z,19.23
2023-04-27T18:35:18.441Z,19.24
2023-04-27T18:38:12.497Z,19.19
2023-04-27T18:41:06.533Z,19.18
2023-04-27T18:44:06.648Z,19.28
2023-04-27T18:47:01.427Z,19.29
2023-04-27T18:49:55.139Z,19.22
2023-04-27T18:52:48.755Z,19.22
2023-04-27T18:55:42.864Z,19.20
2023-04-27T18:58:37.111Z,19.21
2023-04-27T19:01:31.441Z,19.21
2023-04-27T19:04:26.072Z,19.22
2023-04-27T19:07:02.584Z,19.18
2023-04-27T19:09:56.651Z,19.22
2023-04-27T19:12:50.476Z,19.23
2023-04-27T19:15:44.371Z,19.18
2023-04-27T19:18:38.539Z,19.24
2023-04-27T19:21:32.448Z,19.24
2023-04-27T19:24:26.188Z,19.26
2023-04-27T19:27:19.838Z,19.23
2023-04-27T19:30:15.087Z,19.27
2023-04-27T19:33:08.953Z,19.21
2023-04-27T19:36:02.720Z,19.17
2023-04-27T19:38:56.749Z,19.20
2023-04-27T19:41:50.541Z,19.16
2023-04-27T19:44:44.629Z,19.19
2023-04-27T19:47:38.401Z,19.16
2023-04-27T19:50:32.036Z,19.18
2023-04-27T19:53:25.968Z,19.14
2023-04-27T19:56:20.069Z,19.16
2023-04-27T19:59:14.051Z,19.17
2023-04-27T20:02:08.139Z,19.15
2023-04-27T20:05:02.951Z,19.19
2023-04-27T20:07:57.168Z,19.15
2023-04-27T20:10:51.113Z,19.25
2023-04-27T20:13:46.211Z,19.03
2023-04-27T20:16:39.897Z,19.29
2023-04-27T20:19:33.931Z,19.17
2023-04-27T20:22:28.185Z,19.22
2023-04-27T20:25:22.040Z,19.16
2023-04-27T20:28:16.280Z,19.10
2023-04-27T20:31:10.058Z,19.08
2023-04-27T20:34:03.706Z,19.04
2023-04-27T20:36:57.937Z,19.04
2023-04-27T20:39:51.694Z,19.08
2023-04-27T20:42:45.995Z,19.09
2023-04-27T20:45:40.095Z,19.14
2023-04-27T20:48:33.944Z,19.11
2023-04-27T20:51:28.010Z,19.07
2023-04-27T20:54:21.736Z,19.04
2023-04-27T20:57:16.364Z,18.54
2023-04-27T21:00:14.330Z,18.77
2023-04-27T21:03:08.148Z,19.07
2023-04-27T21:06:01.963Z,19.12
2023-04-27T21:08:55.634Z,19.07
2023-04-27T21:11:49.297Z,19.01
2023-04-27T21:14:43.169Z,19.01
2023-04-27T21:17:36.975Z,19.06
2023-04-27T21:20:30.688Z,19.08
2023-04-27T21:23:24.305Z,19.10
2023-04-27T21:26:17.902Z,19.04
2023-04-27T21:29:11.728Z,19.10
2023-04-27T21:32:05.703Z,19.18
2023-04-27T21:34:59.403Z,19.15
2023-04-27T21:37:53.068Z,19.22
2023-04-27T21:40:46.953Z,19.15
2023-04-27T21:43:41.889Z,19.04
2023-04-27T21:46:36.034Z,19.12
2023-04-27T21:49:29.800Z,19.04
2023-04-27T21:52:24.466Z,19.03
2023-04-27T21:55:18.410Z,19.01
2023-04-27T21:58:12.061Z,19.07
2023-04-27T22:01:05.963Z,19.06
2023-04-27T22:04:01.072Z,18.98
2023-04-27T22:06:55.078Z,18.95
2023-04-27T22:09:49.011Z,18.91
2023-04-27T22:12:43.064Z,18.91
2023-04-27T22:15:37.084Z,18.86
2023-04-27T22:18:31.153Z,18.92
2023-04-27T22:21:25.304Z,18.86
2023-04-27T22:24:19.360Z,18.92
2023-04-27T22:27:13.619Z,18.95
2023-04-27T22:30:09.324Z,18.93
2023-04-27T22:33:04.387Z,18.88
2023-04-27T22:35:58.385Z,18.92
2023-04-27T22:38:52.680Z,18.90
2023-04-27T22:41:46.980Z,18.91
2023-04-27T22:44:40.794Z,18.90
2023-04-27T22:47:35.536Z,18.90
2023-04-27T22:50:29.858Z,18.94
2023-04-27T22:53:23.922Z,18.90
2023-04-27T22:56:18.220Z,18.86
2023-04-27T22:59:12.377Z,18.87
2023-04-27T23:02:06.398Z,18.89
2023-04-27T23:05:00.363Z,18.88
2023-04-27T23:07:55.595Z,18.89
2023-04-27T23:10:49.342Z,18.80
2023-04-27T23:13:43.132Z,18.77
2023-04-27T23:16:37.272Z,18.75
2023-04-27T23:19:31.047Z,18.64
2023-04-27T23:22:24.887Z,18.78
2023-04-27T23:25:18.770Z,18.82
2023-04-27T23:28:12.739Z,18.79
2023-04-27T23:31:06.488Z,18.83
2023-04-27T23:33:50.477Z,18.78
2023-04-27T23:36:44.548Z,18.72
2023-04-27T23:39:38.688Z,18.77
2023-04-27T23:42:32.448Z,18.73
2023-04-27T23:45:26.186Z,18.64
2023-04-27T23:48:20.223Z,18.62
2023-04-27T23:51:14.009Z,18.72
2023-04-27T23:54:07.766Z,18.77
2023-04-27T23:57:01.412Z,18.74
2023-04-27T23:59:55.107Z,18.79
